createdAt,value
2023-02-11T00:01:51.752Z,39.28
2023-02-11T00:04:33.467Z,40.45
2023-02-11T00:07:03.828Z,39.97
2023-02-11T00:09:51.528Z,39.80
2023-02-11T00:12:49.220Z,41.13
2023-02-11T00:15:16.461Z,38.40
2023-02-11T00:17:49.958Z,41.55
2023-02-11T00:20:25.612Z,39.75
2023-02-11T00:23:02.081Z,39.90
2023-02-11T00:25:37.468Z,39.95
2023-02-11T00:28:06.516Z,40.75
2023-02-11T00:33:19.742Z,39.63
2023-02-11T00:35:49.239Z,37.38
2023-02-11T00:41:05.661Z,37.08
2023-02-11T00:46:18.651Z,36.80
2023-02-11T00:49:11.081Z,36.13
2023-02-11T00:54:12.617Z,39.30
2023-02-11T00:59:35.817Z,37.67
2023-02-11T01:02:02.844Z,38.42
2023-02-11T01:04:31.910Z,36.65
2023-02-11T01:06:59.264Z,37.72
2023-02-11T01:09:31.674Z,36.65
2023-02-11T01:12:01.432Z,36.50
2023-02-11T01:14:35.708Z,36.90
2023-02-11T01:17:07.261Z,39.60
2023-02-11T01:19:57.733Z,38.88
2023-02-11T01:22:28.568Z,37.35
2023-02-11T01:25:00.386Z,36.45
2023-02-11T01:27:33.053Z,35.40
2023-02-11T01:30:14.633Z,38.30
2023-02-11T01:32:54.645Z,38.25
2023-02-11T01:38:46.238Z,36.63
2023-02-11T01:41:37.258Z,36.63
2023-02-11T01:44:49.037Z,37.25
2023-02-11T01:47:16.426Z,33.72
2023-02-11T01:49:59.722Z,37.25
2023-02-11T01:55:36.867Z,36.47
2023-02-11T01:58:11.258Z,35.92
2023-02-11T02:00:49.172Z,35.45
2023-02-11T02:03:40.915Z,37.45
2023-02-11T02:06:49.365Z,36.15
2023-02-11T02:09:33.688Z,35.97
2023-02-11T02:12:13.269Z,37.90
2023-02-11T02:14:48.435Z,37.03
2023-02-11T02:21:09.033Z,34.97
2023-02-11T02:24:15.616Z,33.08
2023-02-11T02:30:32.968Z,35.35
2023-02-11T02:33:28.380Z,35.75
2023-02-11T02:36:53.606Z,37.45
2023-02-11T02:39:34.879Z,33.53
2023-02-11T02:42:16.098Z,35.70
2023-02-11T02:44:49.747Z,35.17
2023-02-11T02:47:47.682Z,35.28
2023-02-11T02:50:48.566Z,33.10
2023-02-11T02:56:56.497Z,33.42
2023-02-11T03:02:35.815Z,33.78
2023-02-11T03:05:46.207Z,33.22
2023-02-11T03:08:36.008Z,33.00
2023-02-11T03:11:09.005Z,33.15
2023-02-11T03:16:25.754Z,36.17
2023-02-11T03:19:25.691Z,36.70
2023-02-11T03:22:07.399Z,35.53
2023-02-11T03:24:51.157Z,35.38
2023-02-11T03:28:24.764Z,35.25
2023-02-11T03:31:47.341Z,31.65
2023-02-11T03:35:05.263Z,34.13
2023-02-11T03:37:53.733Z,33.00
2023-02-11T03:40:50.569Z,33.22
2023-02-11T03:46:12.257Z,32.67
2023-02-11T03:48:52.511Z,33.42
2023-02-11T03:51:32.057Z,34.60
2023-02-11T03:54:12.322Z,32.83
2023-02-11T03:57:06.907Z,33.72
2023-02-11T03:59:58.513Z,33.17
2023-02-11T04:05:29.194Z,32.72
2023-02-11T04:08:02.989Z,30.73
2023-02-11T04:10:47.812Z,36.35
2023-02-11T04:13:15.645Z,32.80
2023-02-11T04:16:01.860Z,31.35
2023-02-11T04:19:06.727Z,32.53
2023-02-11T04:21:46.740Z,32.85
2023-02-11T04:24:30.872Z,32.65
2023-02-11T04:27:08.558Z,32.78
2023-02-11T04:32:06.014Z,34.42
2023-02-11T04:37:08.526Z,32.25
2023-02-11T04:39:36.115Z,34.28
2023-02-11T04:42:03.243Z,31.75
2023-02-11T04:47:08.778Z,33.17
2023-02-11T04:52:09.880Z,32.38
2023-02-11T04:57:19.679Z,31.88
2023-02-11T04:59:51.151Z,34.80
2023-02-11T05:02:19.702Z,33.13
2023-02-11T05:04:47.194Z,30.88
2023-02-11T05:07:19.885Z,32.85
2023-02-11T05:09:46.882Z,33.80
2023-02-11T05:12:14.273Z,32.38
2023-02-11T05:17:12.486Z,30.52
2023-02-11T05:19:52.006Z,31.73
2023-02-11T05:24:50.300Z,31.42
2023-02-11T05:27:17.126Z,33.05
2023-02-11T05:32:11.169Z,31.52
2023-02-11T05:37:10.127Z,30.00
2023-02-11T05:42:07.834Z,32.22
2023-02-11T05:44:40.928Z,31.13
2023-02-11T05:47:10.227Z,30.20
2023-02-11T05:52:08.461Z,31.38
2023-02-11T05:54:35.312Z,32.08
2023-02-11T05:57:05.360Z,32.08
2023-02-11T05:59:35.300Z,31.48
2023-02-11T06:02:02.295Z,28.52
2023-02-11T06:04:28.926Z,31.40
2023-02-11T06:06:55.492Z,30.73
2023-02-11T06:09:22.178Z,31.10
2023-02-11T06:11:48.780Z,32.13
2023-02-11T06:14:17.193Z,34.78
2023-02-11T06:19:10.793Z,29.83
2023-02-11T06:21:43.913Z,30.58
2023-02-11T06:24:11.649Z,29.30
2023-02-11T06:26:38.288Z,31.05
2023-02-11T06:29:04.868Z,30.60
2023-02-11T06:31:31.598Z,30.33
2023-02-11T06:33:59.253Z,30.05
2023-02-11T06:36:25.914Z,33.95
2023-02-11T06:41:20.704Z,32.35
2023-02-11T06:43:48.322Z,30.15
2023-02-11T06:46:15.673Z,30.65
2023-02-11T06:51:10.602Z,30.95
2023-02-11T06:53:40.698Z,30.75
2023-02-11T06:56:09.846Z,31.00
2023-02-11T07:01:11.891Z,29.52
2023-02-11T07:06:08.127Z,30.85
2023-02-11T07:08:36.132Z,29.50
2023-02-11T07:11:09.909Z,30.98
2023-02-11T07:13:36.589Z,32.83
2023-02-11T07:16:12.013Z,30.92
2023-02-11T07:18:39.286Z,30.77
2023-02-11T07:21:07.429Z,31.73
2023-02-11T07:23:35.710Z,30.35
2023-02-11T07:26:13.616Z,28.55
2023-02-11T07:28:41.121Z,32.03
2023-02-11T07:31:13.874Z,32.55
2023-02-11T07:33:41.169Z,32.38
2023-02-11T07:36:11.764Z,30.55
2023-02-11T07:38:38.729Z,32.17
2023-02-11T07:41:08.223Z,30.55
2023-02-11T07:43:35.633Z,31.15
2023-02-11T07:46:09.505Z,30.45
2023-02-11T07:48:38.280Z,29.88
2023-02-11T07:51:09.401Z,31.98
2023-02-11T07:53:36.576Z,32.33
2023-02-11T07:56:04.892Z,31.70
2023-02-11T07:58:31.818Z,32.13
2023-02-11T08:01:06.505Z,33.00
2023-02-11T08:03:34.639Z,31.77
2023-02-11T08:06:12.882Z,30.70
2023-02-11T08:08:40.110Z,30.17
2023-02-11T08:11:12.184Z,28.90
2023-02-11T08:13:39.310Z,30.15
2023-02-11T08:16:07.223Z,30.15
2023-02-11T08:18:34.889Z,28.50
2023-02-11T08:21:09.590Z,31.13
2023-02-11T08:23:37.484Z,29.17
2023-02-11T08:26:06.075Z,28.38
2023-02-11T08:28:36.341Z,27.13
2023-02-11T08:31:16.230Z,28.17
2023-02-11T08:33:43.397Z,29.05
2023-02-11T08:36:18.558Z,30.20
2023-02-11T08:38:45.462Z,29.45
2023-02-11T08:41:14.916Z,30.38
2023-02-11T08:43:45.489Z,28.75
2023-02-11T08:46:16.258Z,29.30
2023-02-11T08:48:43.615Z,27.25
2023-02-11T08:51:14.606Z,29.00
2023-02-11T08:53:41.368Z,27.63
2023-02-11T08:56:12.880Z,29.75
2023-02-11T08:58:40.629Z,26.60
2023-02-11T09:01:16.413Z,25.80
2023-02-11T09:03:43.126Z,26.58
2023-02-11T09:06:10.879Z,27.10
2023-02-11T09:08:39.480Z,27.60
2023-02-11T09:11:06.362Z,27.65
2023-02-11T09:13:33.494Z,27.80
2023-02-11T09:18:28.546Z,27.38
2023-02-11T09:21:06.436Z,28.17
2023-02-11T09:23:36.187Z,27.05
2023-02-11T09:26:17.109Z,27.85
2023-02-11T09:31:14.847Z,27.52
2023-02-11T09:33:47.708Z,27.53
2023-02-11T09:36:20.736Z,28.00
2023-02-11T09:38:48.015Z,27.48
2023-02-11T09:41:29.446Z,27.10
2023-02-11T09:43:59.076Z,27.33
2023-02-11T09:46:27.691Z,27.20
2023-02-11T09:51:35.761Z,26.17
2023-02-11T09:54:15.436Z,26.42
2023-02-11T09:56:44.841Z,24.13
2023-02-11T09:59:16.226Z,25.98
2023-02-11T10:05:06.667Z,21.20
2023-02-11T10:10:22.668Z,22.63
2023-02-11T10:13:12.152Z,21.80
2023-02-11T10:16:03.781Z,21.75
2023-02-11T10:18:48.959Z,19.80
2023-02-11T10:21:36.942Z,18.60
2023-02-11T10:24:10.001Z,18.38
2023-02-11T10:26:38.537Z,22.50
2023-02-11T10:29:34.041Z,19.42
2023-02-11T10:32:07.410Z,20.33
2023-02-11T10:34:39.799Z,20.25
2023-02-11T10:37:10.286Z,17.75
2023-02-11T10:39:40.008Z,19.60
2023-02-11T10:42:15.078Z,19.48
2023-02-11T10:47:28.833Z,19.23
2023-02-11T10:49:55.988Z,21.15
2023-02-11T10:52:25.440Z,18.42
2023-02-11T11:00:20.320Z,18.67
2023-02-11T11:02:54.810Z,18.83
2023-02-11T11:05:48.669Z,21.42
2023-02-11T11:08:16.131Z,20.35
2023-02-11T11:10:47.684Z,18.80
2023-02-11T11:13:33.061Z,19.77
2023-02-11T11:16:18.065Z,20.67
2023-02-11T11:18:47.359Z,20.52
2023-02-11T11:21:29.023Z,20.50
2023-02-11T11:24:00.590Z,19.58
2023-02-11T11:26:50.201Z,19.30
2023-02-11T11:29:21.666Z,19.52
2023-02-11T11:31:54.613Z,20.40
2023-02-11T11:34:35.053Z,20.77
2023-02-11T11:42:31.001Z,19.67
2023-02-11T11:45:04.689Z,20.52
2023-02-11T11:50:50.579Z,19.35
2023-02-11T11:53:33.316Z,19.73
2023-02-11T11:56:09.090Z,19.58
2023-02-11T11:58:39.431Z,20.08
2023-02-11T12:01:21.491Z,20.33
2023-02-11T12:04:17.478Z,21.02
2023-02-11T12:07:08.925Z,20.08
2023-02-11T12:10:06.975Z,18.73
2023-02-11T12:12:49.545Z,19.98
2023-02-11T12:15:34.508Z,20.60
2023-02-11T12:18:08.834Z,19.80
2023-02-11T12:21:14.536Z,21.17
2023-02-11T12:24:01.298Z,21.23
2023-02-11T12:29:42.136Z,19.05
2023-02-11T12:32:27.603Z,21.90
2023-02-11T12:35:32.657Z,19.05
2023-02-11T12:38:27.919Z,19.88
2023-02-11T12:41:39.887Z,19.95
2023-02-11T12:44:13.226Z,22.45
2023-02-11T12:47:01.874Z,19.83
2023-02-11T12:49:46.352Z,21.42
2023-02-11T12:52:56.890Z,21.58
2023-02-11T12:55:37.234Z,19.75
2023-02-11T12:58:25.412Z,22.75
2023-02-11T13:01:05.759Z,22.85
2023-02-11T13:03:43.494Z,22.75
2023-02-11T13:06:18.501Z,21.73
2023-02-11T13:14:35.329Z,21.65
2023-02-11T13:17:24.688Z,21.58
2023-02-11T13:19:59.739Z,22.73
2023-02-11T13:22:44.668Z,20.55
2023-02-11T13:25:45.638Z,21.50
2023-02-11T13:33:47.454Z,20.48
2023-02-11T13:36:33.499Z,21.23
2023-02-11T13:39:03.778Z,20.88
2023-02-11T13:41:50.927Z,20.58
2023-02-11T13:44:27.959Z,21.50
2023-02-11T13:47:06.931Z,20.13
2023-02-11T13:49:49.689Z,21.23
2023-02-11T13:52:45.515Z,20.33
2023-02-11T13:55:27.530Z,20.60
2023-02-11T13:58:06.245Z,20.33
2023-02-11T14:00:52.203Z,21.48
2023-02-11T14:04:33.520Z,21.98
2023-02-11T14:07:48.646Z,19.02
2023-02-11T14:10:43.477Z,21.45
2023-02-11T14:13:37.230Z,22.15
2023-02-11T14:16:17.082Z,19.83
2023-02-11T14:18:47.504Z,21.02
2023-02-11T14:21:25.905Z,21.15
2023-02-11T14:26:55.646Z,21.63
2023-02-11T14:29:36.819Z,21.05
2023-02-11T14:32:21.939Z,20.33
2023-02-11T14:35:31.522Z,22.17
2023-02-11T14:38:12.822Z,21.65
2023-02-11T14:41:06.939Z,21.85
2023-02-11T14:43:50.372Z,21.80
2023-02-11T14:46:20.221Z,19.75
2023-02-11T14:48:50.828Z,22.92
2023-02-11T14:51:28.125Z,21.67
2023-02-11T14:54:09.505Z,19.90
2023-02-11T14:56:37.056Z,21.58
2023-02-11T14:59:24.790Z,21.25
2023-02-11T15:01:59.316Z,21.65
2023-02-11T15:04:34.696Z,22.05
2023-02-11T15:07:09.555Z,22.08
2023-02-11T15:09:42.802Z,21.65
2023-02-11T15:12:44.659Z,21.65
2023-02-11T15:15:34.831Z,20.67
2023-02-11T15:18:04.395Z,22.85
2023-02-11T15:20:34.618Z,21.80
2023-02-11T15:28:25.651Z,20.90
2023-02-11T15:31:13.284Z,21.40
2023-02-11T15:33:40.937Z,20.52
2023-02-11T15:36:21.483Z,21.70
2023-02-11T15:39:32.634Z,20.85
2023-02-11T15:42:34.073Z,20.35
2023-02-11T15:50:41.571Z,21.45
2023-02-11T15:53:47.775Z,20.08
2023-02-11T15:56:25.639Z,21.67
2023-02-11T15:58:57.543Z,20.00
2023-02-11T16:01:40.964Z,19.92
2023-02-11T16:04:18.032Z,18.65
2023-02-11T16:06:53.722Z,19.17
2023-02-11T16:09:26.760Z,20.13
2023-02-11T16:14:34.825Z,21.08
2023-02-11T16:17:15.635Z,20.60
2023-02-11T16:19:48.850Z,21.95
2023-02-11T16:22:23.162Z,21.83
2023-02-11T16:24:53.280Z,20.10
2023-02-11T16:27:31.750Z,20.80
2023-02-11T16:32:55.643Z,21.30
2023-02-11T16:35:25.729Z,21.05
2023-02-11T16:37:52.597Z,21.63
2023-02-11T16:40:19.619Z,21.70
2023-02-11T16:42:46.706Z,21.38
2023-02-11T16:45:16.198Z,23.55
2023-02-11T16:47:47.590Z,22.33
2023-02-11T16:50:31.664Z,22.83
2023-02-11T16:53:02.325Z,22.88
2023-02-11T16:57:58.505Z,20.77
2023-02-11T17:00:27.919Z,24.45
2023-02-11T17:02:57.617Z,22.45
2023-02-11T17:05:30.208Z,22.77
2023-02-11T17:08:03.773Z,23.25
2023-02-11T17:10:55.922Z,26.20
2023-02-11T17:13:27.300Z,23.25
2023-02-11T17:16:12.602Z,22.58
2023-02-11T17:27:54.790Z,24.60
2023-02-11T17:30:49.623Z,22.20
2023-02-11T17:33:22.079Z,24.35
2023-02-11T17:35:48.984Z,24.35
2023-02-11T17:38:16.216Z,25.50
2023-02-11T17:40:45.202Z,24.05
2023-02-11T17:43:12.014Z,23.52
2023-02-11T17:45:44.818Z,25.20
2023-02-11T17:48:11.893Z,24.55
2023-02-11T17:50:41.432Z,22.05
2023-02-11T17:55:35.834Z,23.77
2023-02-11T17:58:05.782Z,20.67
2023-02-11T18:00:35.567Z,22.67
2023-02-11T18:05:41.221Z,20.63
2023-02-11T18:08:10.537Z,23.00
2023-02-11T18:10:38.187Z,23.08
2023-02-11T18:13:05.269Z,21.80
2023-02-11T18:15:33.678Z,21.50
2023-02-11T18:18:00.677Z,20.73
2023-02-11T18:20:27.584Z,20.67
2023-02-11T18:22:54.456Z,22.30
2023-02-11T18:25:22.413Z,21.92
2023-02-11T18:27:49.130Z,21.13
2023-02-11T18:30:19.450Z,23.35
2023-02-11T18:32:46.171Z,24.52
2023-02-11T18:35:15.912Z,22.17
2023-02-11T18:37:43.071Z,20.83
2023-02-11T18:40:11.993Z,20.67
2023-02-11T18:42:39.229Z,22.00
2023-02-11T18:45:09.479Z,21.13
2023-02-11T18:47:37.891Z,21.95
2023-02-11T18:52:48.185Z,24.92
2023-02-11T18:55:17.079Z,21.10
2023-02-11T18:57:43.851Z,21.83
2023-02-11T19:00:11.163Z,22.45
2023-02-11T19:02:44.598Z,23.83
2023-02-11T19:05:11.515Z,22.83
2023-02-11T19:07:38.332Z,20.08
2023-02-11T19:12:33.444Z,22.45
2023-02-11T19:15:00.878Z,21.75
2023-02-11T19:17:32.467Z,21.17
2023-02-11T19:20:00.053Z,21.45
2023-02-11T19:22:27.079Z,21.05
2023-02-11T19:24:54.057Z,23.63
2023-02-11T19:27:24.865Z,20.65
2023-02-11T19:29:57.793Z,22.02
2023-02-11T19:32:28.275Z,22.17
2023-02-11T19:35:00.675Z,19.60
2023-02-11T19:37:27.824Z,20.00
2023-02-11T19:39:58.939Z,21.80
2023-02-11T19:42:30.673Z,21.10
2023-02-11T19:45:00.712Z,19.73
2023-02-11T19:47:28.050Z,22.48
2023-02-11T19:49:57.637Z,22.65
2023-02-11T19:52:24.660Z,23.20
2023-02-11T19:54:54.168Z,22.50
2023-02-11T19:57:29.327Z,22.77
2023-02-11T19:59:59.456Z,22.52
2023-02-11T20:02:29.533Z,23.98
2023-02-11T20:04:59.636Z,22.15
2023-02-11T20:07:30.416Z,22.38
2023-02-11T20:12:26.354Z,22.65
2023-02-11T20:14:55.261Z,20.95
2023-02-11T20:17:23.503Z,22.38
2023-02-11T20:19:50.589Z,22.20
2023-02-11T20:22:17.543Z,23.52
2023-02-11T20:24:44.917Z,24.05
2023-02-11T20:27:14.279Z,25.20
2023-02-11T20:29:42.217Z,24.95
2023-02-11T20:32:11.550Z,26.05
2023-02-11T20:34:38.640Z,26.27
2023-02-11T20:39:40.960Z,25.55
2023-02-11T20:42:11.861Z,27.27
2023-02-11T20:59:21.211Z,28.70
2023-02-11T21:01:50.791Z,28.13
2023-02-11T21:09:25.336Z,25.70
2023-02-11T21:14:22.303Z,25.15
2023-02-11T21:16:49.593Z,27.58
2023-02-11T21:19:17.031Z,25.02
2023-02-11T21:21:44.623Z,23.63
2023-02-11T21:24:12.098Z,22.25
2023-02-11T21:26:39.547Z,24.65
2023-02-11T21:31:36.030Z,29.13
2023-02-11T21:34:03.342Z,28.88
2023-02-11T21:36:30.371Z,26.80
2023-02-11T21:38:57.671Z,23.63
2023-02-11T21:41:25.000Z,23.98
2023-02-11T21:43:52.589Z,24.02
2023-02-11T21:46:20.699Z,23.23
2023-02-11T21:48:48.389Z,24.17
2023-02-11T21:51:26.104Z,24.83
2023-02-11T21:53:57.101Z,27.15
2023-02-11T21:56:26.331Z,36.85
2023-02-11T21:58:54.725Z,33.10
2023-02-11T22:01:31.014Z,30.85
2023-02-11T22:06:33.797Z,37.70
2023-02-11T22:11:35.725Z,33.35
2023-02-11T22:14:02.937Z,31.80
2023-02-11T22:16:30.695Z,33.83
2023-02-11T22:18:58.719Z,33.80
2023-02-11T22:21:26.296Z,32.30
2023-02-11T22:23:54.707Z,31.20
2023-02-11T22:26:25.952Z,33.35
2023-02-11T22:28:53.734Z,32.58
2023-02-11T22:31:23.925Z,28.35
2023-02-11T22:33:51.034Z,27.55
2023-02-11T22:36:23.867Z,28.38
2023-02-11T22:38:54.241Z,28.73
2023-02-11T22:41:23.180Z,28.40
2023-02-11T22:43:50.201Z,29.58
2023-02-11T22:46:19.591Z,28.70
2023-02-11T22:48:48.984Z,34.92
2023-02-11T22:51:19.507Z,29.25
2023-02-11T22:53:55.015Z,28.40
2023-02-11T22:56:22.044Z,29.80
2023-02-11T22:58:50.070Z,29.10
2023-02-11T23:01:17.491Z,28.77
2023-02-11T23:03:45.191Z,27.58
2023-02-11T23:06:12.553Z,32.38
2023-02-11T23:08:43.232Z,34.15
2023-02-11T23:11:16.658Z,33.15
2023-02-11T23:13:46.198Z,32.33
2023-02-11T23:16:17.215Z,29.70
2023-02-11T23:18:47.666Z,27.63
2023-02-11T23:21:17.776Z,29.63
2023-02-11T23:23:45.473Z,27.60
2023-02-11T23:26:14.283Z,27.02
2023-02-11T23:28:41.914Z,27.63
2023-02-11T23:31:29.264Z,27.83
2023-02-11T23:33:56.750Z,25.83
2023-02-11T23:36:25.969Z,25.70
2023-02-11T23:38:52.668Z,28.27
2023-02-11T23:41:20.171Z,26.35
2023-02-11T23:43:54.817Z,28.20
2023-02-11T23:46:23.341Z,27.55
2023-02-11T23:48:51.301Z,29.10
2023-02-11T23:51:19.076Z,28.25
2023-02-11T23:53:46.251Z,29.42
2023-02-11T23:56:22.900Z,27.05
2023-02-11T23:58:52.046Z,27.33
